sensor_id;sensor_type;location;lat;lon;timestamp;P1;durP1;ratioP1;P2;durP2;ratioP2
28266;SDS011;15525;45.568;5.448;2024-02-16T00:01:05;26.23;;;15.20;;
28266;SDS011;15525;45.568;5.448;2024-02-16T00:03:30;25.00;;;15.75;;
28266;SDS011;15525;45.568;5.448;2024-02-16T00:05:56;26.45;;;15.30;;
28266;SDS011;15525;45.568;5.448;2024-02-16T00:08:21;28.42;;;16.08;;
28266;SDS011;15525;45.568;5.448;2024-02-16T00:10:47;27.95;;;14.80;;
28266;SDS011;15525;45.568;5.448;2024-02-16T00:13:13;25.23;;;14.13;;
28266;SDS011;15525;45.568;5.448;2024-02-16T00:15:39;23.73;;;14.05;;
28266;SDS011;15525;45.568;5.448;2024-02-16T00:18:05;28.65;;;14.25;;
28266;SDS011;15525;45.568;5.448;2024-02-16T00:20:31;28.73;;;14.80;;
28266;SDS011;15525;45.568;5.448;2024-02-16T00:22:57;26.52;;;14.55;;
28266;SDS011;15525;45.568;5.448;2024-02-16T00:25:22;27.92;;;14.50;;
28266;SDS011;15525;45.568;5.448;2024-02-16T00:27:48;27.80;;;15.13;;
28266;SDS011;15525;45.568;5.448;2024-02-16T00:30:14;25.25;;;14.60;;
28266;SDS011;15525;45.568;5.448;2024-02-16T00:32:42;23.95;;;13.40;;
28266;SDS011;15525;45.568;5.448;2024-02-16T00:35:10;22.33;;;13.15;;
28266;SDS011;15525;45.568;5.448;2024-02-16T00:37:36;20.90;;;13.43;;
28266;SDS011;15525;45.568;5.448;2024-02-16T00:40:03;23.50;;;13.60;;
28266;SDS011;15525;45.568;5.448;2024-02-16T00:42:29;23.65;;;13.85;;
28266;SDS011;15525;45.568;5.448;2024-02-16T00:44:56;28.38;;;14.57;;
28266;SDS011;15525;45.568;5.448;2024-02-16T00:47:21;25.92;;;15.30;;
28266;SDS011;15525;45.568;5.448;2024-02-16T00:49:48;25.33;;;14.43;;
28266;SDS011;15525;45.568;5.448;2024-02-16T00:52:14;25.98;;;14.18;;
28266;SDS011;15525;45.568;5.448;2024-02-16T00:54:39;25.38;;;13.77;;
28266;SDS011;15525;45.568;5.448;2024-02-16T00:57:05;28.08;;;14.18;;
28266;SDS011;15525;45.568;5.448;2024-02-16T00:59:30;27.80;;;13.77;;
28266;SDS011;15525;45.568;5.448;2024-02-16T01:01:56;26.75;;;14.10;;
28266;SDS011;15525;45.568;5.448;2024-02-16T01:04:21;25.02;;;13.30;;
28266;SDS011;15525;45.568;5.448;2024-02-16T01:06:47;26.27;;;13.52;;
28266;SDS011;15525;45.568;5.448;2024-02-16T01:09:13;23.75;;;13.27;;
28266;SDS011;15525;45.568;5.448;2024-02-16T01:11:41;25.42;;;13.20;;
28266;SDS011;15525;45.568;5.448;2024-02-16T01:14:07;22.38;;;12.75;;
28266;SDS011;15525;45.568;5.448;2024-02-16T01:16:33;24.40;;;12.48;;
28266;SDS011;15525;45.568;5.448;2024-02-16T01:18:58;25.63;;;13.10;;
28266;SDS011;15525;45.568;5.448;2024-02-16T01:21:24;23.67;;;12.65;;
28266;SDS011;15525;45.568;5.448;2024-02-16T01:23:49;21.35;;;12.00;;
28266;SDS011;15525;45.568;5.448;2024-02-16T01:26:15;24.20;;;13.05;;
28266;SDS011;15525;45.568;5.448;2024-02-16T01:28:40;25.20;;;12.73;;
28266;SDS011;15525;45.568;5.448;2024-02-16T01:31:05;21.98;;;12.07;;
28266;SDS011;15525;45.568;5.448;2024-02-16T01:33:31;19.80;;;11.93;;
28266;SDS011;15525;45.568;5.448;2024-02-16T01:35:59;23.83;;;13.00;;
28266;SDS011;15525;45.568;5.448;2024-02-16T01:38:25;23.63;;;12.07;;
28266;SDS011;15525;45.568;5.448;2024-02-16T01:40:50;21.25;;;12.27;;
28266;SDS011;15525;45.568;5.448;2024-02-16T01:43:19;19.23;;;11.68;;
28266;SDS011;15525;45.568;5.448;2024-02-16T01:45:45;20.30;;;11.30;;
28266;SDS011;15525;45.568;5.448;2024-02-16T01:48:10;19.95;;;10.93;;
28266;SDS011;15525;45.568;5.448;2024-02-16T01:50:36;19.88;;;11.05;;
28266;SDS011;15525;45.568;5.448;2024-02-16T01:53:02;20.40;;;11.10;;
28266;SDS011;15525;45.568;5.448;2024-02-16T01:55:27;21.52;;;10.95;;
28266;SDS011;15525;45.568;5.448;2024-02-16T01:57:53;19.50;;;10.63;;
28266;SDS011;15525;45.568;5.448;2024-02-16T02:00:19;18.98;;;11.75;;
28266;SDS011;15525;45.568;5.448;2024-02-16T02:02:45;21.50;;;11.15;;
28266;SDS011;15525;45.568;5.448;2024-02-16T02:05:12;21.05;;;10.65;;
28266;SDS011;15525;45.568;5.448;2024-02-16T02:07:38;20.48;;;11.00;;
28266;SDS011;15525;45.568;5.448;2024-02-16T02:10:03;18.00;;;10.52;;
28266;SDS011;15525;45.568;5.448;2024-02-16T02:12:29;20.67;;;10.77;;
28266;SDS011;15525;45.568;5.448;2024-02-16T02:14:55;20.02;;;10.65;;
28266;SDS011;15525;45.568;5.448;2024-02-16T02:17:20;19.88;;;10.65;;
28266;SDS011;15525;45.568;5.448;2024-02-16T02:19:46;20.02;;;10.70;;
28266;SDS011;15525;45.568;5.448;2024-02-16T02:22:20;16.75;;;10.43;;
28266;SDS011;15525;45.568;5.448;2024-02-16T02:24:47;21.15;;;10.38;;
28266;SDS011;15525;45.568;5.448;2024-02-16T02:27:13;22.15;;;11.52;;
28266;SDS011;15525;45.568;5.448;2024-02-16T02:29:40;21.58;;;10.93;;
28266;SDS011;15525;45.568;5.448;2024-02-16T02:32:06;20.30;;;11.13;;
28266;SDS011;15525;45.568;5.448;2024-02-16T02:34:32;22.60;;;11.48;;
28266;SDS011;15525;45.568;5.448;2024-02-16T02:36:58;25.08;;;12.27;;
28266;SDS011;15525;45.568;5.448;2024-02-16T02:39:24;20.92;;;11.57;;
28266;SDS011;15525;45.568;5.448;2024-02-16T02:41:50;21.02;;;10.75;;
28266;SDS011;15525;45.568;5.448;2024-02-16T02:44:15;18.58;;;10.93;;
28266;SDS011;15525;45.568;5.448;2024-02-16T02:46:40;19.23;;;10.60;;
28266;SDS011;15525;45.568;5.448;2024-02-16T02:49:06;20.40;;;11.02;;
28266;SDS011;15525;45.568;5.448;2024-02-16T02:51:31;20.48;;;11.20;;
28266;SDS011;15525;45.568;5.448;2024-02-16T02:53:57;17.90;;;10.70;;
28266;SDS011;15525;45.568;5.448;2024-02-16T02:56:22;18.42;;;10.93;;
28266;SDS011;15525;45.568;5.448;2024-02-16T02:58:47;15.68;;;10.10;;
28266;SDS011;15525;45.568;5.448;2024-02-16T03:01:13;18.92;;;10.75;;
28266;SDS011;15525;45.568;5.448;2024-02-16T03:03:39;18.13;;;10.20;;
28266;SDS011;15525;45.568;5.448;2024-02-16T03:06:06;19.63;;;10.52;;
28266;SDS011;15525;45.568;5.448;2024-02-16T03:08:32;18.00;;;10.25;;
28266;SDS011;15525;45.568;5.448;2024-02-16T03:10:58;19.58;;;10.07;;
28266;SDS011;15525;45.568;5.448;2024-02-16T03:13:26;17.15;;;9.93;;
28266;SDS011;15525;45.568;5.448;2024-02-16T03:15:52;18.48;;;10.30;;
28266;SDS011;15525;45.568;5.448;2024-02-16T03:18:18;17.60;;;10.43;;
28266;SDS011;15525;45.568;5.448;2024-02-16T03:20:44;19.40;;;11.07;;
28266;SDS011;15525;45.568;5.448;2024-02-16T03:23:13;20.25;;;10.80;;
28266;SDS011;15525;45.568;5.448;2024-02-16T03:25:39;18.38;;;10.23;;
28266;SDS011;15525;45.568;5.448;2024-02-16T03:28:05;23.50;;;11.13;;
28266;SDS011;15525;45.568;5.448;2024-02-16T03:30:31;19.77;;;10.73;;
28266;SDS011;15525;45.568;5.448;2024-02-16T03:32:56;19.98;;;10.57;;
28266;SDS011;15525;45.568;5.448;2024-02-16T03:35:22;17.83;;;9.80;;
28266;SDS011;15525;45.568;5.448;2024-02-16T03:37:47;18.85;;;10.73;;
28266;SDS011;15525;45.568;5.448;2024-02-16T03:40:12;19.45;;;11.02;;
28266;SDS011;15525;45.568;5.448;2024-02-16T03:42:41;18.95;;;10.65;;
28266;SDS011;15525;45.568;5.448;2024-02-16T03:45:06;21.23;;;10.80;;
28266;SDS011;15525;45.568;5.448;2024-02-16T03:47:32;19.80;;;9.95;;
28266;SDS011;15525;45.568;5.448;2024-02-16T03:49:58;20.50;;;10.60;;
28266;SDS011;15525;45.568;5.448;2024-02-16T03:52:23;19.50;;;10.23;;
28266;SDS011;15525;45.568;5.448;2024-02-16T03:54:49;20.08;;;11.07;;
28266;SDS011;15525;45.568;5.448;2024-02-16T03:57:16;19.60;;;10.82;;
28266;SDS011;15525;45.568;5.448;2024-02-16T03:59:42;16.65;;;10.27;;
28266;SDS011;15525;45.568;5.448;2024-02-16T04:02:08;18.92;;;9.93;;
28266;SDS011;15525;45.568;5.448;2024-02-16T04:04:35;18.60;;;10.75;;
28266;SDS011;15525;45.568;5.448;2024-02-16T04:07:00;23.92;;;10.90;;
28266;SDS011;15525;45.568;5.448;2024-02-16T04:09:25;17.95;;;9.55;;
28266;SDS011;15525;45.568;5.448;2024-02-16T04:11:51;18.98;;;9.98;;
28266;SDS011;15525;45.568;5.448;2024-02-16T04:14:16;20.40;;;10.02;;
28266;SDS011;15525;45.568;5.448;2024-02-16T04:16:43;18.10;;;9.98;;
28266;SDS011;15525;45.568;5.448;2024-02-16T04:19:09;22.00;;;10.15;;
28266;SDS011;15525;45.568;5.448;2024-02-16T04:21:34;16.40;;;9.20;;
28266;SDS011;15525;45.568;5.448;2024-02-16T04:23:59;19.88;;;10.25;;
28266;SDS011;15525;45.568;5.448;2024-02-16T04:26:25;18.13;;;9.82;;
28266;SDS011;15525;45.568;5.448;2024-02-16T04:28:50;18.67;;;9.35;;
28266;SDS011;15525;45.568;5.448;2024-02-16T04:31:16;15.82;;;8.93;;
28266;SDS011;15525;45.568;5.448;2024-02-16T04:33:41;15.98;;;9.15;;
28266;SDS011;15525;45.568;5.448;2024-02-16T04:36:07;17.60;;;9.68;;
28266;SDS011;15525;45.568;5.448;2024-02-16T04:38:32;16.80;;;9.48;;
28266;SDS011;15525;45.568;5.448;2024-02-16T04:40:58;18.63;;;10.10;;
28266;SDS011;15525;45.568;5.448;2024-02-16T04:43:23;19.05;;;9.98;;
28266;SDS011;15525;45.568;5.448;2024-02-16T04:45:50;20.77;;;11.13;;
28266;SDS011;15525;45.568;5.448;2024-02-16T04:48:15;21.83;;;10.80;;
28266;SDS011;15525;45.568;5.448;2024-02-16T04:50:41;22.17;;;11.95;;
28266;SDS011;15525;45.568;5.448;2024-02-16T04:53:06;27.08;;;13.52;;
28266;SDS011;15525;45.568;5.448;2024-02-16T04:55:32;25.35;;;13.52;;
28266;SDS011;15525;45.568;5.448;2024-02-16T04:57:57;25.15;;;14.15;;
28266;SDS011;15525;45.568;5.448;2024-02-16T05:00:23;23.98;;;12.98;;
28266;SDS011;15525;45.568;5.448;2024-02-16T05:02:50;24.70;;;12.25;;
28266;SDS011;15525;45.568;5.448;2024-02-16T05:05:16;22.20;;;12.38;;
28266;SDS011;15525;45.568;5.448;2024-02-16T05:07:42;25.55;;;12.13;;
28266;SDS011;15525;45.568;5.448;2024-02-16T05:10:08;20.23;;;11.32;;
28266;SDS011;15525;45.568;5.448;2024-02-16T05:12:34;26.20;;;12.05;;
28266;SDS011;15525;45.568;5.448;2024-02-16T05:15:00;22.38;;;12.45;;
28266;SDS011;15525;45.568;5.448;2024-02-16T05:17:25;23.27;;;11.52;;
28266;SDS011;15525;45.568;5.448;2024-02-16T05:19:51;23.23;;;11.57;;
28266;SDS011;15525;45.568;5.448;2024-02-16T05:22:17;19.58;;;10.93;;
28266;SDS011;15525;45.568;5.448;2024-02-16T05:24:46;16.63;;;9.95;;
28266;SDS011;15525;45.568;5.448;2024-02-16T05:27:12;18.50;;;10.35;;
28266;SDS011;15525;45.568;5.448;2024-02-16T05:29:38;23.27;;;11.98;;
28266;SDS011;15525;45.568;5.448;2024-02-16T05:32:04;23.30;;;12.20;;
28266;SDS011;15525;45.568;5.448;2024-02-16T05:34:29;23.98;;;12.73;;
28266;SDS011;15525;45.568;5.448;2024-02-16T05:37:02;25.23;;;14.20;;
28266;SDS011;15525;45.568;5.448;2024-02-16T05:39:31;29.25;;;14.80;;
28266;SDS011;15525;45.568;5.448;2024-02-16T05:42:00;27.92;;;14.18;;
28266;SDS011;15525;45.568;5.448;2024-02-16T05:44:26;27.65;;;14.25;;
28266;SDS011;15525;45.568;5.448;2024-02-16T05:46:52;29.05;;;14.10;;
28266;SDS011;15525;45.568;5.448;2024-02-16T05:49:17;27.23;;;14.40;;
28266;SDS011;15525;45.568;5.448;2024-02-16T05:51:42;24.48;;;13.05;;
28266;SDS011;15525;45.568;5.448;2024-02-16T05:54:26;26.90;;;12.63;;
28266;SDS011;15525;45.568;5.448;2024-02-16T05:56:52;23.90;;;12.13;;
28266;SDS011;15525;45.568;5.448;2024-02-16T05:59:17;27.42;;;13.43;;
28266;SDS011;15525;45.568;5.448;2024-02-16T06:01:43;22.85;;;12.93;;
28266;SDS011;15525;45.568;5.448;2024-02-16T06:04:08;28.13;;;14.63;;
28266;SDS011;15525;45.568;5.448;2024-02-16T06:06:35;26.67;;;14.23;;
28266;SDS011;15525;45.568;5.448;2024-02-16T06:09:01;24.95;;;14.57;;
28266;SDS011;15525;45.568;5.448;2024-02-16T06:11:26;25.48;;;15.95;;
28266;SDS011;15525;45.568;5.448;2024-02-16T06:13:51;25.23;;;16.08;;
28266;SDS011;15525;45.568;5.448;2024-02-16T06:16:17;28.13;;;15.45;;
28266;SDS011;15525;45.568;5.448;2024-02-16T06:18:42;26.50;;;14.48;;
28266;SDS011;15525;45.568;5.448;2024-02-16T06:21:08;24.75;;;13.98;;
28266;SDS011;15525;45.568;5.448;2024-02-16T06:23:33;31.27;;;14.40;;
28266;SDS011;15525;45.568;5.448;2024-02-16T06:25:58;28.15;;;13.88;;
28266;SDS011;15525;45.568;5.448;2024-02-16T06:28:24;30.58;;;13.90;;
28266;SDS011;15525;45.568;5.448;2024-02-16T06:30:49;26.02;;;14.13;;
28266;SDS011;15525;45.568;5.448;2024-02-16T06:33:15;24.50;;;12.45;;
28266;SDS011;15525;45.568;5.448;2024-02-16T06:35:40;24.30;;;12.88;;
28266;SDS011;15525;45.568;5.448;2024-02-16T06:38:05;24.52;;;12.20;;
28266;SDS011;15525;45.568;5.448;2024-02-16T06:40:31;19.98;;;11.32;;
28266;SDS011;15525;45.568;5.448;2024-02-16T06:42:57;32.28;;;11.77;;
28266;SDS011;15525;45.568;5.448;2024-02-16T06:45:22;22.73;;;11.57;;
28266;SDS011;15525;45.568;5.448;2024-02-16T06:47:48;21.10;;;11.50;;
28266;SDS011;15525;45.568;5.448;2024-02-16T06:50:13;32.03;;;14.68;;
28266;SDS011;15525;45.568;5.448;2024-02-16T06:52:39;32.00;;;17.55;;
28266;SDS011;15525;45.568;5.448;2024-02-16T06:55:04;34.90;;;16.08;;
28266;SDS011;15525;45.568;5.448;2024-02-16T06:57:29;29.02;;;16.20;;
28266;SDS011;15525;45.568;5.448;2024-02-16T06:59:56;28.30;;;15.00;;
28266;SDS011;15525;45.568;5.448;2024-02-16T07:02:22;25.58;;;12.43;;
28266;SDS011;15525;45.568;5.448;2024-02-16T07:04:48;24.88;;;11.90;;
28266;SDS011;15525;45.568;5.448;2024-02-16T07:07:13;26.95;;;13.07;;
28266;SDS011;15525;45.568;5.448;2024-02-16T07:09:39;25.83;;;12.05;;
28266;SDS011;15525;45.568;5.448;2024-02-16T07:12:05;28.50;;;12.63;;
28266;SDS011;15525;45.568;5.448;2024-02-16T07:14:31;27.13;;;12.65;;
28266;SDS011;15525;45.568;5.448;2024-02-16T07:16:57;24.58;;;12.70;;
28266;SDS011;15525;45.568;5.448;2024-02-16T07:19:22;26.42;;;12.93;;
28266;SDS011;15525;45.568;5.448;2024-02-16T07:21:48;26.92;;;13.68;;
28266;SDS011;15525;45.568;5.448;2024-02-16T07:24:13;26.95;;;14.20;;
28266;SDS011;15525;45.568;5.448;2024-02-16T07:26:40;28.70;;;13.68;;
28266;SDS011;15525;45.568;5.448;2024-02-16T07:29:05;24.52;;;13.75;;
28266;SDS011;15525;45.568;5.448;2024-02-16T07:31:33;28.70;;;13.32;;
28266;SDS011;15525;45.568;5.448;2024-02-16T07:33:59;30.13;;;14.00;;
28266;SDS011;15525;45.568;5.448;2024-02-16T07:36:28;28.70;;;14.13;;
28266;SDS011;15525;45.568;5.448;2024-02-16T07:38:54;35.65;;;15.05;;
28266;SDS011;15525;45.568;5.448;2024-02-16T07:41:20;31.60;;;14.52;;
28266;SDS011;15525;45.568;5.448;2024-02-16T07:43:45;35.13;;;15.55;;
28266;SDS011;15525;45.568;5.448;2024-02-16T07:46:10;34.58;;;15.55;;
28266;SDS011;15525;45.568;5.448;2024-02-16T07:48:36;44.28;;;17.95;;
28266;SDS011;15525;45.568;5.448;2024-02-16T07:51:01;41.08;;;17.40;;
28266;SDS011;15525;45.568;5.448;2024-02-16T07:53:28;39.38;;;18.13;;
28266;SDS011;15525;45.568;5.448;2024-02-16T07:55:54;46.42;;;19.05;;
28266;SDS011;15525;45.568;5.448;2024-02-16T07:58:19;47.40;;;19.15;;
28266;SDS011;15525;45.568;5.448;2024-02-16T08:00:45;34.55;;;17.73;;
28266;SDS011;15525;45.568;5.448;2024-02-16T08:03:10;37.00;;;17.67;;
28266;SDS011;15525;45.568;5.448;2024-02-16T08:05:36;36.15;;;17.73;;
28266;SDS011;15525;45.568;5.448;2024-02-16T08:08:02;34.80;;;16.83;;
28266;SDS011;15525;45.568;5.448;2024-02-16T08:10:28;35.55;;;15.55;;
28266;SDS011;15525;45.568;5.448;2024-02-16T08:12:53;30.17;;;14.65;;
28266;SDS011;15525;45.568;5.448;2024-02-16T08:15:19;28.73;;;14.50;;
28266;SDS011;15525;45.568;5.448;2024-02-16T08:17:48;31.92;;;14.52;;
28266;SDS011;15525;45.568;5.448;2024-02-16T08:20:15;33.35;;;14.00;;
28266;SDS011;15525;45.568;5.448;2024-02-16T08:22:41;24.27;;;13.00;;
28266;SDS011;15525;45.568;5.448;2024-02-16T08:25:06;31.30;;;15.75;;
28266;SDS011;15525;45.568;5.448;2024-02-16T08:27:32;27.17;;;14.90;;
28266;SDS011;15525;45.568;5.448;2024-02-16T08:29:58;24.73;;;14.05;;
28266;SDS011;15525;45.568;5.448;2024-02-16T08:32:24;28.75;;;13.45;;
28266;SDS011;15525;45.568;5.448;2024-02-16T08:34:49;26.98;;;12.82;;
28266;SDS011;15525;45.568;5.448;2024-02-16T08:37:15;26.85;;;12.43;;
28266;SDS011;15525;45.568;5.448;2024-02-16T08:39:41;24.02;;;12.80;;
28266;SDS011;15525;45.568;5.448;2024-02-16T08:42:06;30.40;;;15.48;;
28266;SDS011;15525;45.568;5.448;2024-02-16T08:44:39;28.95;;;15.35;;
28266;SDS011;15525;45.568;5.448;2024-02-16T08:47:05;31.90;;;16.65;;
28266;SDS011;15525;45.568;5.448;2024-02-16T08:49:32;29.75;;;15.93;;
28266;SDS011;15525;45.568;5.448;2024-02-16T08:51:58;30.67;;;15.48;;
28266;SDS011;15525;45.568;5.448;2024-02-16T08:54:23;26.30;;;14.25;;
28266;SDS011;15525;45.568;5.448;2024-02-16T08:56:50;21.67;;;11.93;;
28266;SDS011;15525;45.568;5.448;2024-02-16T08:59:16;23.63;;;12.43;;
28266;SDS011;15525;45.568;5.448;2024-02-16T09:01:42;23.95;;;12.13;;
28266;SDS011;15525;45.568;5.448;2024-02-16T09:04:08;24.30;;;12.45;;
28266;SDS011;15525;45.568;5.448;2024-02-16T09:06:33;21.98;;;11.38;;
28266;SDS011;15525;45.568;5.448;2024-02-16T09:09:03;24.83;;;12.85;;
28266;SDS011;15525;45.568;5.448;2024-02-16T09:11:29;25.88;;;12.88;;
28266;SDS011;15525;45.568;5.448;2024-02-16T09:13:54;25.75;;;12.70;;
28266;SDS011;15525;45.568;5.448;2024-02-16T09:16:20;28.83;;;13.68;;
28266;SDS011;15525;45.568;5.448;2024-02-16T09:18:45;25.02;;;11.85;;
28266;SDS011;15525;45.568;5.448;2024-02-16T09:21:13;20.67;;;11.25;;
28266;SDS011;15525;45.568;5.448;2024-02-16T09:23:39;15.90;;;8.60;;
28266;SDS011;15525;45.568;5.448;2024-02-16T09:26:05;16.48;;;7.90;;
28266;SDS011;15525;45.568;5.448;2024-02-16T09:28:30;15.77;;;7.38;;
28266;SDS011;15525;45.568;5.448;2024-02-16T09:30:56;12.55;;;7.00;;
28266;SDS011;15525;45.568;5.448;2024-02-16T09:33:22;14.55;;;6.80;;
28266;SDS011;15525;45.568;5.448;2024-02-16T09:35:49;12.40;;;6.50;;
28266;SDS011;15525;45.568;5.448;2024-02-16T09:38:15;11.10;;;6.22;;
28266;SDS011;15525;45.568;5.448;2024-02-16T09:40:40;11.27;;;5.85;;
28266;SDS011;15525;45.568;5.448;2024-02-16T09:43:09;11.45;;;6.20;;
28266;SDS011;15525;45.568;5.448;2024-02-16T09:45:35;11.15;;;5.90;;
28266;SDS011;15525;45.568;5.448;2024-02-16T09:48:01;12.52;;;6.60;;
28266;SDS011;15525;45.568;5.448;2024-02-16T09:50:30;10.13;;;5.95;;
28266;SDS011;15525;45.568;5.448;2024-02-16T09:52:56;10.02;;;5.55;;
28266;SDS011;15525;45.568;5.448;2024-02-16T09:55:22;8.52;;;5.30;;
28266;SDS011;15525;45.568;5.448;2024-02-16T09:57:57;12.55;;;5.68;;
28266;SDS011;15525;45.568;5.448;2024-02-16T10:00:23;9.70;;;4.90;;
28266;SDS011;15525;45.568;5.448;2024-02-16T10:02:49;9.13;;;4.68;;
28266;SDS011;15525;45.568;5.448;2024-02-16T10:05:15;9.32;;;4.63;;
28266;SDS011;15525;45.568;5.448;2024-02-16T10:07:42;12.90;;;5.47;;
28266;SDS011;15525;45.568;5.448;2024-02-16T10:10:24;10.23;;;5.60;;
28266;SDS011;15525;45.568;5.448;2024-02-16T10:13:01;11.55;;;5.35;;
28266;SDS011;15525;45.568;5.448;2024-02-16T10:15:30;7.57;;;4.55;;
28266;SDS011;15525;45.568;5.448;2024-02-16T10:20:24;8.73;;;4.90;;
28266;SDS011;15525;45.568;5.448;2024-02-16T10:22:50;8.77;;;4.95;;
28266;SDS011;15525;45.568;5.448;2024-02-16T10:25:27;8.15;;;5.10;;
28266;SDS011;15525;45.568;5.448;2024-02-16T10:27:53;11.13;;;4.93;;
28266;SDS011;15525;45.568;5.448;2024-02-16T10:30:20;13.95;;;5.10;;
28266;SDS011;15525;45.568;5.448;2024-02-16T10:32:49;12.35;;;5.03;;
28266;SDS011;15525;45.568;5.448;2024-02-16T10:35:15;8.88;;;4.50;;
28266;SDS011;15525;45.568;5.448;2024-02-16T10:37:42;7.47;;;4.85;;
28266;SDS011;15525;45.568;5.448;2024-02-16T10:40:09;9.63;;;5.00;;
28266;SDS011;15525;45.568;5.448;2024-02-16T10:42:38;8.43;;;5.13;;
28266;SDS011;15525;45.568;5.448;2024-02-16T10:45:05;13.82;;;5.10;;
28266;SDS011;15525;45.568;5.448;2024-02-16T10:47:31;12.07;;;5.47;;
28266;SDS011;15525;45.568;5.448;2024-02-16T10:49:56;8.93;;;4.90;;
28266;SDS011;15525;45.568;5.448;2024-02-16T10:52:22;9.88;;;4.88;;
28266;SDS011;15525;45.568;5.448;2024-02-16T10:54:48;10.88;;;4.70;;
28266;SDS011;15525;45.568;5.448;2024-02-16T10:57:15;11.23;;;5.15;;
28266;SDS011;15525;45.568;5.448;2024-02-16T10:59:42;9.63;;;5.03;;
28266;SDS011;15525;45.568;5.448;2024-02-16T11:02:09;10.60;;;5.18;;
28266;SDS011;15525;45.568;5.448;2024-02-16T11:04:38;9.35;;;4.88;;
28266;SDS011;15525;45.568;5.448;2024-02-16T11:07:11;9.95;;;5.03;;
28266;SDS011;15525;45.568;5.448;2024-02-16T11:09:40;11.30;;;4.57;;
28266;SDS011;15525;45.568;5.448;2024-02-16T11:12:06;8.45;;;4.60;;
28266;SDS011;15525;45.568;5.448;2024-02-16T11:17:13;8.15;;;4.82;;
28266;SDS011;15525;45.568;5.448;2024-02-16T11:19:43;11.83;;;4.80;;
28266;SDS011;15525;45.568;5.448;2024-02-16T11:22:09;7.55;;;4.90;;
28266;SDS011;15525;45.568;5.448;2024-02-16T11:24:36;9.65;;;5.50;;
28266;SDS011;15525;45.568;5.448;2024-02-16T11:27:07;9.30;;;4.95;;
28266;SDS011;15525;45.568;5.448;2024-02-16T11:29:37;12.02;;;4.90;;
28266;SDS011;15525;45.568;5.448;2024-02-16T11:32:04;10.38;;;4.80;;
28266;SDS011;15525;45.568;5.448;2024-02-16T11:34:31;12.88;;;5.10;;
28266;SDS011;15525;45.568;5.448;2024-02-16T11:36:58;6.97;;;4.35;;
28266;SDS011;15525;45.568;5.448;2024-02-16T11:39:25;7.65;;;4.53;;
28266;SDS011;15525;45.568;5.448;2024-02-16T11:42:01;7.18;;;4.68;;
28266;SDS011;15525;45.568;5.448;2024-02-16T11:44:35;9.52;;;4.95;;
28266;SDS011;15525;45.568;5.448;2024-02-16T11:47:02;9.85;;;5.03;;
28266;SDS011;15525;45.568;5.448;2024-02-16T11:49:31;10.55;;;4.80;;
28266;SDS011;15525;45.568;5.448;2024-02-16T11:51:58;9.48;;;4.75;;
28266;SDS011;15525;45.568;5.448;2024-02-16T11:54:24;8.25;;;4.72;;
28266;SDS011;15525;45.568;5.448;2024-02-16T11:56:50;7.18;;;4.40;;
28266;SDS011;15525;45.568;5.448;2024-02-16T11:59:16;8.52;;;5.03;;
28266;SDS011;15525;45.568;5.448;2024-02-16T12:01:52;8.13;;;4.60;;
28266;SDS011;15525;45.568;5.448;2024-02-16T12:04:22;8.68;;;4.93;;
28266;SDS011;15525;45.568;5.448;2024-02-16T12:06:55;7.28;;;4.50;;
28266;SDS011;15525;45.568;5.448;2024-02-16T12:09:22;8.40;;;4.70;;
28266;SDS011;15525;45.568;5.448;2024-02-16T12:11:48;7.03;;;4.25;;
28266;SDS011;15525;45.568;5.448;2024-02-16T12:14:15;8.15;;;4.47;;
28266;SDS011;15525;45.568;5.448;2024-02-16T12:16:46;8.32;;;4.65;;
28266;SDS011;15525;45.568;5.448;2024-02-16T12:19:15;8.65;;;4.18;;
28266;SDS011;15525;45.568;5.448;2024-02-16T12:21:48;7.68;;;4.20;;
28266;SDS011;15525;45.568;5.448;2024-02-16T12:24:16;6.65;;;4.10;;
28266;SDS011;15525;45.568;5.448;2024-02-16T12:26:41;8.77;;;4.50;;
28266;SDS011;15525;45.568;5.448;2024-02-16T12:29:07;7.38;;;4.60;;
28266;SDS011;15525;45.568;5.448;2024-02-16T12:31:33;7.45;;;4.53;;
28266;SDS011;15525;45.568;5.448;2024-02-16T12:34:02;6.95;;;4.47;;
28266;SDS011;15525;45.568;5.448;2024-02-16T12:36:30;9.27;;;4.55;;
28266;SDS011;15525;45.568;5.448;2024-02-16T12:38:55;6.05;;;3.88;;
28266;SDS011;15525;45.568;5.448;2024-02-16T12:41:21;6.40;;;4.15;;
28266;SDS011;15525;45.568;5.448;2024-02-16T12:43:46;6.97;;;4.07;;
28266;SDS011;15525;45.568;5.448;2024-02-16T12:46:12;6.80;;;4.10;;
28266;SDS011;15525;45.568;5.448;2024-02-16T12:48:37;6.30;;;4.35;;
28266;SDS011;15525;45.568;5.448;2024-02-16T12:51:03;8.05;;;3.80;;
28266;SDS011;15525;45.568;5.448;2024-02-16T12:53:28;5.35;;;3.25;;
28266;SDS011;15525;45.568;5.448;2024-02-16T12:56:00;7.32;;;4.10;;
28266;SDS011;15525;45.568;5.448;2024-02-16T12:58:26;6.80;;;4.03;;
28266;SDS011;15525;45.568;5.448;2024-02-16T13:00:52;6.25;;;3.72;;
28266;SDS011;15525;45.568;5.448;2024-02-16T13:03:18;6.43;;;3.30;;
28266;SDS011;15525;45.568;5.448;2024-02-16T13:05:43;6.00;;;3.90;;
28266;SDS011;15525;45.568;5.448;2024-02-16T13:08:08;5.82;;;3.30;;
28266;SDS011;15525;45.568;5.448;2024-02-16T13:10:34;7.97;;;4.00;;
28266;SDS011;15525;45.568;5.448;2024-02-16T13:12:59;6.72;;;3.50;;
28266;SDS011;15525;45.568;5.448;2024-02-16T13:15:25;7.13;;;3.90;;
28266;SDS011;15525;45.568;5.448;2024-02-16T13:17:50;8.48;;;4.43;;
28266;SDS011;15525;45.568;5.448;2024-02-16T13:20:15;5.65;;;3.92;;
28266;SDS011;15525;45.568;5.448;2024-02-16T13:22:41;9.25;;;4.03;;
28266;SDS011;15525;45.568;5.448;2024-02-16T13:25:07;7.30;;;3.75;;
28266;SDS011;15525;45.568;5.448;2024-02-16T13:27:33;6.57;;;3.60;;
28266;SDS011;15525;45.568;5.448;2024-02-16T13:30:02;8.00;;;3.65;;
28266;SDS011;15525;45.568;5.448;2024-02-16T13:32:27;7.85;;;3.72;;
28266;SDS011;15525;45.568;5.448;2024-02-16T13:34:53;5.32;;;3.40;;
28266;SDS011;15525;45.568;5.448;2024-02-16T13:37:18;4.97;;;3.35;;
28266;SDS011;15525;45.568;5.448;2024-02-16T13:39:44;5.50;;;3.03;;
28266;SDS011;15525;45.568;5.448;2024-02-16T13:42:09;5.15;;;2.90;;
28266;SDS011;15525;45.568;5.448;2024-02-16T13:44:35;6.75;;;3.10;;
28266;SDS011;15525;45.568;5.448;2024-02-16T13:47:01;5.82;;;3.50;;
28266;SDS011;15525;45.568;5.448;2024-02-16T13:49:26;5.78;;;2.85;;
28266;SDS011;15525;45.568;5.448;2024-02-16T13:51:52;5.20;;;3.40;;
28266;SDS011;15525;45.568;5.448;2024-02-16T13:54:17;5.28;;;2.90;;
28266;SDS011;15525;45.568;5.448;2024-02-16T13:56:43;3.97;;;2.72;;
28266;SDS011;15525;45.568;5.448;2024-02-16T13:59:08;2.50;;;1.65;;
28266;SDS011;15525;45.568;5.448;2024-02-16T14:01:34;2.55;;;1.60;;
28266;SDS011;15525;45.568;5.448;2024-02-16T14:04:00;3.22;;;1.70;;
28266;SDS011;15525;45.568;5.448;2024-02-16T14:06:26;2.40;;;1.42;;
28266;SDS011;15525;45.568;5.448;2024-02-16T14:08:51;4.30;;;1.58;;
28266;SDS011;15525;45.568;5.448;2024-02-16T14:11:18;4.40;;;1.77;;
28266;SDS011;15525;45.568;5.448;2024-02-16T14:13:43;3.20;;;2.10;;
28266;SDS011;15525;45.568;5.448;2024-02-16T14:16:09;4.82;;;2.20;;
28266;SDS011;15525;45.568;5.448;2024-02-16T14:18:35;2.75;;;1.50;;
28266;SDS011;15525;45.568;5.448;2024-02-16T14:21:01;3.58;;;1.80;;
28266;SDS011;15525;45.568;5.448;2024-02-16T14:23:29;2.33;;;1.50;;
28266;SDS011;15525;45.568;5.448;2024-02-16T14:25:55;2.20;;;1.65;;
28266;SDS011;15525;45.568;5.448;2024-02-16T14:28:20;2.83;;;1.70;;
28266;SDS011;15525;45.568;5.448;2024-02-16T14:30:46;4.93;;;1.80;;